Site:       
  Group:  
  From:      To:        
   
Sensor Name: Furnace      Latitude:-9.57320000 , Longitude:53.92290000
Please click on the Table Headers to view a Graph of the Observations.
TimeMax. Temp. (°C)Min. Temp. (°C)Mean Temp. (°C)Tot. Rain (mm)Mean Wind (kn)Max Gust (kn)Solar Rad. (J\cm2)Humidity (%)Atmos. Press. (mb)Temp. 5cm (°C)Temp. 10cm (°C)Temp. 20cm (°C)Temp. 30cm (°C)Temp. 50cm (°C)Temp. 100cm (°C)Grass Min. (°C)
03/02/2023 23:00:009.80 9.10 9.50 0.00 13.70 25.70 0.00 88.70 1026.80 8.60 8.70 8.70 8.50 7.90 7.70 8.10
03/02/2023 22:00:009.60 9.20 9.40 0.00 13.20 22.00 0.00 90.20 1026.80 8.70 8.90 8.70 8.60 7.90 7.70 8.20
03/02/2023 21:00:009.60 9.20 9.40 0.00 14.30 21.60 0.00 89.40 1026.70 8.90 9.00 8.80 8.60 7.80 7.70 8.10
03/02/2023 20:00:009.80 9.20 9.50 0.00 13.20 24.20 0.00 93.00 1026.70 9.20 9.20 8.80 8.50 7.80 7.70 8.40
03/02/2023 19:00:009.80 9.40 9.60 0.00 12.20 20.90 0.00 93.20 1026.10 9.50 9.40 8.80 8.50 7.80 7.60 8.20
03/02/2023 18:00:0010.20 9.80 10.00 0.00 11.40 18.80 0.90 89.80 1026.10 9.70 9.60 8.80 8.50 7.80 7.60 9.40
03/02/2023 17:00:0010.90 10.00 10.40 0.00 11.50 19.90 17.10 87.90 1026.00 10.10 9.80 8.70 8.40 7.80 7.60 9.70
03/02/2023 16:00:0011.20 10.90 11.00 0.00 11.10 18.60 48.90 85.40 1025.90 10.30 9.70 8.60 8.40 7.70 7.60 11.90
03/02/2023 15:00:0011.20 10.90 11.10 0.00 13.10 21.10 51.80 85.80 1026.00 10.30 9.60 8.50 8.30 7.70 7.60 11.90
03/02/2023 14:00:0011.60 10.90 11.30 0.00 11.70 21.20 76.50 85.40 1026.10 10.10 9.40 8.30 8.30 7.70 7.60 12.10
03/02/2023 13:00:0011.90 10.70 11.30 0.00 9.40 18.40 77.40 84.80 1025.80 9.70 9.00 8.30 8.20 7.70 7.60 12.00
03/02/2023 12:00:0011.60 9.60 10.60 0.00 9.30 18.10 71.60 94.80 1025.60 9.10 8.70 8.20 8.20 7.70 7.60 10.00
03/02/2023 11:00:0010.00 9.60 9.80 0.00 10.70 23.10 28.50 94.20 1025.10 8.80 8.60 8.20 8.20 7.70 7.60 9.70
03/02/2023 10:00:009.70 9.10 9.40 0.00 8.30 17.70 18.00 94.30 1024.50 8.60 8.60 8.20 8.20 7.70 7.60 8.70
03/02/2023 09:00:009.50 9.10 9.30 0.00 5.80 11.40 2.80 96.70 1024.10 8.70 8.60 8.20 8.20 7.60 7.60 8.20
03/02/2023 08:00:009.60 9.40 9.50 0.00 7.50 14.50 0.00 97.10 1023.80 8.80 8.70 8.20 8.20 7.60 7.60 9.00
03/02/2023 07:00:009.60 9.40 9.50 0.00 7.70 15.50 0.00 97.60 1023.60 8.90 8.70 8.20 8.10 7.60 7.60 9.10
03/02/2023 06:00:009.80 9.50 9.60 0.20 8.50 18.90 0.00 98.80 1023.40 8.90 8.70 8.20 8.10 7.60 7.60 9.30
03/02/2023 05:00:009.80 9.70 9.70 0.30 8.80 17.70 0.00 99.20 1023.10 8.90 8.70 8.20 8.10 7.60 7.60 9.60
03/02/2023 04:00:009.80 9.70 9.80 1.00 6.10 14.50 0.00 99.20 1022.80 8.90 8.70 8.20 8.10 7.60 7.60 9.60
03/02/2023 03:00:009.80 9.70 9.70 0.90 5.20 11.80 0.00 99.20 1022.80 8.90 8.60 8.20 8.10 7.50 7.60 9.60
03/02/2023 02:00:009.80 9.70 9.80 0.90 6.50 16.00 0.00 99.20 1022.70 8.90 8.60 8.10 8.00 7.50 7.60 9.60
03/02/2023 01:00:009.80 9.80 9.80 0.60 8.20 16.50 0.00 99.00 1022.40 8.90 8.60 8.10 8.00 7.50 7.60 9.60
03/02/2023 00:00:009.90 9.80 9.90 1.20 5.90 13.10 0.00 98.80 1021.90 8.80 8.60 8.10 8.00 7.50 7.60 9.60
02/02/2023 23:00:009.90 9.80 9.90 1.40 5.90 14.30 0.00 98.70 1021.30 8.80 8.60 8.10 8.00 7.50 7.60 9.60
02/02/2023 22:00:009.90 9.80 9.90 1.20 6.70 13.90 0.00 98.30 1020.90 8.80 8.60 8.10 8.00 7.40 7.60 9.60